メインページ
METAR-TAF:

METAR-TAF

空港 :

フロリアノーポリス, サンタカタリーナ州, ブラジル

緯度: 27-40S, 経度: 048-33W, 海抜: 5m

現時点の気象観測

当レポートは31分前の17:00(UTC)に作成
の風 11kt
気温 19°C
湿度 94%
気圧
視程: 2000m
高度300ftの雲はほとんどない
高度800ftの千切れ雲あり
高度1300ftの千切れ雲あり
小雨, 靄

METAR: SBFL 231700Z 01011KT 2000 -RA BR FEW003 BKN008 BKN013 19/18 Q10 23

時間: 14:31 (17:31 UTC)

予報

当レポートは8時間16分前の09:15(UTC)に作成
予報は23日の 12時(UTC)から 24日の 12時(UTC)まで有効
の風 8kt
視程10km以上
高度3000ftの千切れ雲あり
24日の 00時(UTC)から 24日の 02時(UTC)まで徐々に
高度2000ftの千切れ雲あり
確率 40% :
24日の 02時(UTC)から 24日の 10時(UTC)まで一時的に
高度1000ftの千切れ雲あり

TAF: SBFL 230915Z 2312/2412 36008KT 9999 BKN030 TX22/2316Z TN18/2408Z BECMG 2400/2402 BKN020 PROB40 TEMPO 2402/2410 BKN010 RMK PDW

4,000以上の空港の気象観測と天気予報(METAR報とTAF報)

利用可能な観測所は地図上に黄色い丸と赤い丸で示す。

丸の上にカーソルを重ねると観測所名を参照できる。

次にクリックすると気象観測と天気予報を参照できる。

マップの切り替え:黒色「×」印の緑ボタンをクリックして拡大、「-」印の緑ボタンをクリックして縮小、緑色の三角印をクリックして隣りの地図に切り替え


METAR-TAF: